createdAt,value
2023-04-14T00:00:10.418Z,99315.31
2023-04-14T00:01:45.645Z,99307.19
2023-04-14T00:03:18.348Z,99294.53
2023-04-14T00:04:54.012Z,99301.44
2023-04-14T00:06:27.491Z,99293.16
2023-04-14T00:07:59.814Z,99290.38
2023-04-14T00:09:31.630Z,99288.41
2023-04-14T00:11:03.479Z,99288.16
2023-04-14T00:12:35.295Z,99288.06
2023-04-14T00:14:07.330Z,99287.81
2023-04-14T00:15:41.662Z,99290.50
2023-04-14T00:17:13.577Z,99285.84
2023-04-14T00:18:45.683Z,99289.25
2023-04-14T00:20:17.542Z,99288.28
2023-04-14T00:21:49.352Z,99281.97
2023-04-14T00:23:21.377Z,99288.03
2023-04-14T00:24:53.432Z,99294.97
2023-04-14T00:26:25.488Z,99295.72
2023-04-14T00:27:57.552Z,99293.88
2023-04-14T00:29:29.344Z,99290.09
2023-04-14T00:31:01.174Z,99291.78
2023-04-14T00:32:33.161Z,99289.84
2023-04-14T00:34:05.443Z,99294.09
2023-04-14T00:35:37.440Z,99295.81
2023-04-14T00:37:09.247Z,99296.50
2023-04-14T00:38:41.104Z,99298.25
2023-04-14T00:40:13.547Z,99297.25
2023-04-14T00:41:45.417Z,99292.63
2023-04-14T00:43:20.691Z,99291.66
2023-04-14T00:44:52.650Z,99295.16
2023-04-14T00:46:24.661Z,99288.97
2023-04-14T00:47:58.533Z,99284.59
2023-04-14T00:49:30.641Z,99290.78
2023-04-14T00:51:03.281Z,99290.78
2023-04-14T00:52:37.356Z,99287.13
2023-04-14T00:54:10.574Z,99287.13
2023-04-14T00:55:43.148Z,99291.66
2023-04-14T00:57:14.985Z,99294.31
2023-04-14T00:58:47.068Z,99294.31
2023-04-14T01:00:19.880Z,99287.28
2023-04-14T01:01:51.898Z,99288.22
2023-04-14T01:03:26.563Z,99296.25
2023-04-14T01:04:58.886Z,99292.75
2023-04-14T01:06:31.035Z,99292.75
2023-04-14T01:08:04.146Z,99294.56
2023-04-14T01:09:36.491Z,99300.91
2023-04-14T01:11:21.876Z,99300.19
2023-04-14T01:13:06.416Z,99296.66
2023-04-14T01:14:54.743Z,99295.91
2023-04-14T01:16:33.936Z,99297.75
2023-04-14T01:19:05.636Z,99296.31
2023-04-14T01:20:48.980Z,99296.31
2023-04-14T01:22:25.486Z,99302.50
2023-04-14T01:24:11.923Z,99294.88
2023-04-14T01:26:23.760Z,99301.41
2023-04-14T01:28:19.029Z,99305.09
2023-04-14T01:30:10.598Z,99303.25
2023-04-14T01:32:01.244Z,99306.06
2023-04-14T01:33:36.939Z,99313.13
2023-04-14T01:35:13.525Z,99311.41
2023-04-14T01:36:56.951Z,99313.34
2023-04-14T01:38:33.579Z,99307.16
2023-04-14T01:40:12.828Z,99310.81
2023-04-14T01:41:49.748Z,99307.25
2023-04-14T01:43:30.891Z,99310.94
2023-04-14T01:45:17.014Z,99319.81
2023-04-14T01:46:52.426Z,99312.75
2023-04-14T01:48:26.539Z,99310.09
2023-04-14T01:50:01.184Z,99313.59
2023-04-14T01:51:34.779Z,99314.69
2023-04-14T01:53:09.119Z,99324.56
2023-04-14T01:54:43.564Z,99328.22
2023-04-14T01:56:18.115Z,99322.03
2023-04-14T01:57:52.820Z,99315.78
2023-04-14T01:59:26.293Z,99317.63
2023-04-14T02:00:59.056Z,99311.31
2023-04-14T02:02:33.327Z,99307.75
2023-04-14T02:05:42.517Z,99308.50
2023-04-14T02:07:15.253Z,99304.97
2023-04-14T02:08:47.825Z,99297.78
2023-04-14T02:10:21.093Z,99291.59
2023-04-14T02:11:54.754Z,99295.97
2023-04-14T02:13:28.771Z,99291.44
2023-04-14T02:15:02.564Z,99294.13
2023-04-14T02:16:36.422Z,99294.13
2023-04-14T02:18:08.953Z,99286.09
2023-04-14T02:19:44.175Z,99283.41
2023-04-14T02:21:18.596Z,99282.47
2023-04-14T02:22:50.471Z,99284.28
2023-04-14T02:24:23.186Z,99279.78
2023-04-14T02:26:05.025Z,99286.97
2023-04-14T02:27:45.585Z,99286.84
2023-04-14T02:29:21.932Z,99285.13
2023-04-14T02:30:56.384Z,99284.06
2023-04-14T02:32:30.150Z,99278.69
2023-04-14T02:34:06.332Z,99287.31
2023-04-14T02:35:46.341Z,99279.41
2023-04-14T02:37:23.221Z,99281.22
2023-04-14T02:39:06.804Z,99280.25
2023-04-14T02:40:42.133Z,99283.53
2023-04-14T02:42:16.158Z,99281.72
2023-04-14T02:43:55.859Z,99286.09
2023-04-14T02:45:30.882Z,99279.75
2023-04-14T02:47:09.727Z,99278.06
2023-04-14T02:48:47.696Z,99279.63
2023-04-14T02:50:22.258Z,99284.00
2023-04-14T02:52:11.983Z,99290.22
2023-04-14T02:53:44.484Z,99285.59
2023-04-14T02:55:24.569Z,99280.94
2023-04-14T02:56:59.246Z,99282.66
2023-04-14T02:58:32.435Z,99294.09
2023-04-14T03:00:06.341Z,99288.72
2023-04-14T03:01:44.367Z,99285.09
2023-04-14T03:03:17.229Z,99294.69
2023-04-14T03:04:50.069Z,99296.41
2023-04-14T03:06:31.805Z,99298.09
2023-04-14T03:08:05.220Z,99297.00
2023-04-14T03:09:37.551Z,99289.94
2023-04-14T03:11:11.787Z,99297.00
2023-04-14T03:12:45.702Z,99286.28
2023-04-14T03:14:19.285Z,99296.84
2023-04-14T03:15:53.151Z,99301.25
2023-04-14T03:17:27.635Z,99296.00
2023-04-14T03:19:00.353Z,99293.34
2023-04-14T03:20:33.604Z,99299.53
2023-04-14T03:22:06.842Z,99295.16
2023-04-14T03:23:39.823Z,99295.31
2023-04-14T03:25:13.542Z,99298.94
2023-04-14T03:26:49.773Z,99299.94
2023-04-14T03:28:25.093Z,99301.88
2023-04-14T03:30:03.726Z,99295.81
2023-04-14T03:31:38.384Z,99302.13
2023-04-14T03:33:14.683Z,99307.72
2023-04-14T03:34:54.333Z,99302.50
2023-04-14T03:36:29.273Z,99306.28
2023-04-14T03:38:06.318Z,99299.34
2023-04-14T03:39:39.814Z,99301.31
2023-04-14T03:41:14.841Z,99305.94
2023-04-14T03:42:48.654Z,99306.19
2023-04-14T03:44:26.488Z,99301.91
2023-04-14T03:45:58.694Z,99301.19
2023-04-14T03:47:32.726Z,99308.50
2023-04-14T03:49:11.257Z,99306.81
2023-04-14T03:50:45.930Z,99301.69
2023-04-14T03:52:21.090Z,99301.81
2023-04-14T03:53:56.889Z,99301.94
2023-04-14T03:55:32.188Z,99296.59
2023-04-14T03:57:08.942Z,99289.66
2023-04-14T03:58:47.430Z,99297.81
2023-04-14T04:00:21.603Z,99292.47
2023-04-14T04:01:55.598Z,99287.22
2023-04-14T04:03:29.673Z,99284.69
2023-04-14T04:05:03.535Z,99276.75
2023-04-14T04:06:37.309Z,99266.28
2023-04-14T04:08:10.252Z,99276.16
2023-04-14T04:09:43.551Z,99269.09
2023-04-14T04:11:19.112Z,99276.28
2023-04-14T04:12:53.416Z,99266.53
2023-04-14T04:14:28.596Z,99269.34
2023-04-14T04:16:00.809Z,99270.34
2023-04-14T04:17:33.311Z,99267.66
2023-04-14T04:19:07.374Z,99268.75
2023-04-14T04:20:41.393Z,99265.34
2023-04-14T04:22:17.603Z,99269.00
2023-04-14T04:23:53.573Z,99266.44
2023-04-14T04:25:25.943Z,99264.72
2023-04-14T04:27:24.230Z,99271.06
2023-04-14T04:29:00.925Z,99264.00
2023-04-14T04:30:34.395Z,99261.44
2023-04-14T04:32:07.153Z,99267.78
2023-04-14T04:33:39.096Z,99265.22
2023-04-14T04:35:12.101Z,99274.94
2023-04-14T04:36:46.382Z,99267.19
2023-04-14T04:38:18.226Z,99277.00
2023-04-14T04:39:51.733Z,99277.00
2023-04-14T04:41:28.231Z,99271.91
2023-04-14T04:43:01.365Z,99274.47
2023-04-14T04:44:34.526Z,99270.09
2023-04-14T04:46:24.852Z,99268.38
2023-04-14T04:47:56.825Z,99268.38
2023-04-14T04:49:28.864Z,99273.72
2023-04-14T04:51:06.344Z,99285.28
2023-04-14T04:52:38.248Z,99278.13
2023-04-14T04:54:10.253Z,99283.47
2023-04-14T04:55:42.586Z,99286.16
2023-04-14T04:57:14.407Z,99286.00
2023-04-14T04:58:47.088Z,99294.88
2023-04-14T05:00:19.298Z,99294.88
2023-04-14T05:01:51.503Z,99296.72
2023-04-14T05:03:23.572Z,99303.91
2023-04-14T05:04:55.519Z,99304.13
2023-04-14T05:06:28.358Z,99305.13
2023-04-14T05:08:00.139Z,99304.25
2023-04-14T05:09:31.946Z,99308.03
2023-04-14T05:11:04.470Z,99309.88
2023-04-14T05:12:36.298Z,99301.94
2023-04-14T05:14:08.116Z,99311.06
2023-04-14T05:15:39.982Z,99312.88
2023-04-14T05:17:11.777Z,99318.22
2023-04-14T05:18:43.543Z,99317.25
2023-04-14T05:20:15.743Z,99313.63
2023-04-14T05:21:47.514Z,99310.94
2023-04-14T05:23:19.297Z,99310.81
2023-04-14T05:24:53.543Z,99315.81
2023-04-14T05:28:00.241Z,99301.31
2023-04-14T05:29:32.022Z,99298.41
2023-04-14T05:31:03.848Z,99306.34
2023-04-14T05:32:35.917Z,99311.44
2023-04-14T05:34:07.727Z,99306.09
2023-04-14T05:35:39.532Z,99319.09
2023-04-14T05:37:11.629Z,99317.16
2023-04-14T05:38:43.543Z,99323.13
2023-04-14T05:40:15.709Z,99322.88
2023-04-14T05:41:47.528Z,99324.47
2023-04-14T05:43:19.395Z,99328.69
2023-04-14T05:44:51.190Z,99329.44
2023-04-14T05:46:22.984Z,99323.00
2023-04-14T05:47:55.075Z,99319.22
2023-04-14T05:49:27.396Z,99315.56
2023-04-14T05:50:59.237Z,99329.44
2023-04-14T05:52:31.042Z,99326.63
2023-04-14T05:54:03.098Z,99329.91
2023-04-14T05:55:35.178Z,99323.47
2023-04-14T05:57:06.967Z,99320.41
2023-04-14T05:58:38.769Z,99316.63
2023-04-14T06:00:12.538Z,99319.06
2023-04-14T06:01:47.237Z,99317.13
2023-04-14T06:03:19.362Z,99321.34
2023-04-14T06:04:51.477Z,99323.09
2023-04-14T06:06:23.346Z,99321.13
2023-04-14T06:07:55.141Z,99313.81
2023-04-14T06:09:26.969Z,99321.72
2023-04-14T06:10:58.744Z,99317.22
2023-04-14T06:12:30.582Z,99318.94
2023-04-14T06:14:03.154Z,99318.69
2023-04-14T06:15:35.079Z,99320.38
2023-04-14T06:17:06.893Z,99313.06
2023-04-14T06:18:38.776Z,99305.03
2023-04-14T06:20:11.111Z,99306.63
2023-04-14T06:21:42.924Z,99309.19
2023-04-14T06:23:14.844Z,99305.53
2023-04-14T06:24:46.988Z,99308.94
2023-04-14T06:26:18.835Z,99307.00
2023-04-14T06:27:50.623Z,99305.16
2023-04-14T06:29:22.461Z,99305.03
2023-04-14T06:30:54.265Z,99307.59
2023-04-14T06:32:26.081Z,99306.50
2023-04-14T06:33:57.985Z,99307.09
2023-04-14T06:35:33.608Z,99311.31
2023-04-14T06:37:06.924Z,99299.50
2023-04-14T06:38:38.773Z,99299.25
2023-04-14T06:40:10.950Z,99301.56
2023-04-14T06:41:44.181Z,99292.28
2023-04-14T06:43:18.425Z,99296.41
2023-04-14T06:44:50.251Z,99285.31
2023-04-14T06:46:22.154Z,99285.03
2023-04-14T06:47:54.186Z,99286.47
2023-04-14T06:49:26.501Z,99287.06
2023-04-14T06:50:58.417Z,99281.44
2023-04-14T06:52:30.232Z,99283.72
2023-04-14T06:54:02.354Z,99283.47
2023-04-14T06:55:35.763Z,99289.41
2023-04-14T06:57:07.558Z,99282.69
2023-04-14T06:58:40.426Z,99283.28
2023-04-14T07:00:30.917Z,99274.25
2023-04-14T07:02:21.460Z,99266.41
2023-04-14T07:04:14.229Z,99269.81
2023-04-14T07:05:46.128Z,99271.34
2023-04-14T07:07:18.381Z,99270.25
2023-04-14T07:08:50.225Z,99270.97
2023-04-14T07:10:22.047Z,99275.22
2023-04-14T07:11:53.911Z,99275.94
2023-04-14T07:13:25.742Z,99273.13
2023-04-14T07:14:57.749Z,99278.09
2023-04-14T07:16:29.642Z,99282.19
2023-04-14T07:18:01.546Z,99273.88
2023-04-14T07:19:33.386Z,99271.78
2023-04-14T07:21:05.229Z,99275.91
2023-04-14T07:22:37.103Z,99279.16
2023-04-14T07:24:09.658Z,99276.22
2023-04-14T07:25:41.538Z,99281.31
2023-04-14T07:27:15.795Z,99284.59
2023-04-14T07:28:47.796Z,99276.25
2023-04-14T07:30:19.635Z,99285.00
2023-04-14T07:31:51.530Z,99279.53
2023-04-14T07:33:23.854Z,99275.75
2023-04-14T07:34:57.185Z,99281.13
2023-04-14T07:36:31.372Z,99279.97
2023-04-14T07:38:03.265Z,99287.06
2023-04-14T07:39:35.682Z,99283.50
2023-04-14T07:41:07.646Z,99285.34
2023-04-14T07:42:39.482Z,99291.56
2023-04-14T07:44:11.404Z,99290.72
2023-04-14T07:45:43.540Z,99289.88
2023-04-14T07:47:15.413Z,99290.88
2023-04-14T07:48:47.414Z,99294.56
2023-04-14T07:50:19.885Z,99290.16
2023-04-14T07:51:51.880Z,99291.00
2023-04-14T07:53:24.000Z,99298.19
2023-04-14T07:54:56.026Z,99294.66
2023-04-14T07:56:27.829Z,99301.97
2023-04-14T07:57:59.695Z,99302.84
2023-04-14T07:59:32.083Z,99302.97
2023-04-14T08:01:07.935Z,99302.22
2023-04-14T08:02:40.021Z,99306.75
2023-04-14T08:04:12.692Z,99307.75
2023-04-14T08:05:44.890Z,99298.00
2023-04-14T08:07:16.777Z,99297.28
2023-04-14T08:08:48.633Z,99298.28
2023-04-14T08:10:20.542Z,99304.59
2023-04-14T08:11:52.368Z,99295.00
2023-04-14T08:13:24.223Z,99288.91
2023-04-14T08:14:59.209Z,99294.44
2023-04-14T08:16:31.156Z,99291.88
2023-04-14T08:18:03.226Z,99288.34
2023-04-14T08:19:35.071Z,99282.25
2023-04-14T08:21:06.992Z,99291.28
2023-04-14T08:22:38.912Z,99283.22
2023-04-14T08:24:10.765Z,99286.03
2023-04-14T08:25:43.077Z,99279.81
2023-04-14T08:27:14.883Z,99282.50
2023-04-14T08:28:47.201Z,99282.66
2023-04-14T08:30:19.002Z,99281.81
2023-04-14T08:31:51.158Z,99281.09
2023-04-14T08:33:23.022Z,99285.59
2023-04-14T08:35:39.768Z,99283.75
2023-04-14T08:36:51.291Z,99286.59
2023-04-14T08:38:24.308Z,99278.66
2023-04-14T08:39:56.717Z,99286.72
2023-04-14T08:41:33.037Z,99276.97
2023-04-14T08:43:05.896Z,99278.81
2023-04-14T08:44:38.075Z,99279.91
2023-04-14T08:46:11.813Z,99280.03
2023-04-14T08:47:46.239Z,99285.56
2023-04-14T08:49:40.668Z,99293.59
2023-04-14T08:51:32.220Z,99292.75
2023-04-14T08:53:10.323Z,99296.13
2023-04-14T08:54:42.756Z,99283.72
2023-04-14T08:56:18.333Z,99286.53
2023-04-14T08:57:50.943Z,99283.97
2023-04-14T08:59:22.942Z,99279.47
2023-04-14T09:00:55.963Z,99285.81
2023-04-14T09:02:28.145Z,99278.03
2023-04-14T09:04:02.013Z,99278.88
2023-04-14T09:05:34.144Z,99270.81
2023-04-14T09:07:05.943Z,99271.94
2023-04-14T09:08:38.196Z,99274.63
2023-04-14T09:10:11.324Z,99272.09
2023-04-14T09:11:43.548Z,99269.25
2023-04-14T09:13:17.037Z,99264.03
2023-04-14T09:14:50.933Z,99260.34
2023-04-14T09:16:23.251Z,99264.75
2023-04-14T09:17:55.767Z,99259.41
2023-04-14T09:19:28.954Z,99259.25
2023-04-14T09:21:33.010Z,99260.94
2023-04-14T09:22:53.355Z,99260.69
2023-04-14T09:24:32.501Z,99258.84
2023-04-14T09:26:09.423Z,99256.88
2023-04-14T09:27:41.500Z,99261.13
2023-04-14T09:29:13.399Z,99259.44
2023-04-14T09:30:45.324Z,99257.47
2023-04-14T09:32:17.379Z,99251.09
2023-04-14T09:33:53.007Z,99251.72
2023-04-14T09:35:43.627Z,99251.97
2023-04-14T09:37:16.473Z,99260.59
2023-04-14T09:38:50.180Z,99264.00
2023-04-14T09:40:29.317Z,99260.59
2023-04-14T09:42:02.341Z,99264.00
2023-04-14T09:43:34.482Z,99273.88
2023-04-14T09:45:07.004Z,99269.63
2023-04-14T09:47:05.892Z,99266.50
2023-04-14T09:48:58.052Z,99269.31
2023-04-14T09:50:29.954Z,99271.88
2023-04-14T09:52:07.632Z,99271.41
2023-04-14T09:53:40.700Z,99276.06
2023-04-14T09:55:15.349Z,99270.13
2023-04-14T09:56:47.278Z,99271.25
2023-04-14T09:58:24.627Z,99278.56
2023-04-14T09:59:58.070Z,99269.09
2023-04-14T10:01:34.582Z,99268.50
2023-04-14T10:03:06.754Z,99274.97
2023-04-14T10:04:38.698Z,99267.19
2023-04-14T10:06:19.770Z,99275.63
2023-04-14T10:07:51.636Z,99264.31
2023-04-14T10:09:26.514Z,99269.81
2023-04-14T10:11:13.594Z,99266.38
2023-04-14T10:12:46.188Z,99265.69
2023-04-14T10:14:18.431Z,99266.81
2023-04-14T10:15:50.325Z,99254.50
2023-04-14T10:17:22.203Z,99258.28
2023-04-14T10:18:55.194Z,99254.91
2023-04-14T10:20:27.231Z,99248.69
2023-04-14T10:21:59.670Z,99252.34
2023-04-14T10:23:32.498Z,99247.84
2023-04-14T10:25:05.390Z,99247.84
2023-04-14T10:26:37.227Z,99243.59
2023-04-14T10:28:09.083Z,99246.13
2023-04-14T10:29:42.297Z,99245.16
2023-04-14T10:31:22.421Z,99239.06
2023-04-14T10:32:54.573Z,99230.03
2023-04-14T10:34:27.217Z,99238.09
2023-04-14T10:36:03.356Z,99239.66
2023-04-14T10:37:35.923Z,99240.50
2023-04-14T10:39:08.409Z,99240.41
2023-04-14T10:40:47.259Z,99248.28
2023-04-14T10:42:19.164Z,99256.06
2023-04-14T10:43:51.185Z,99242.56
2023-04-14T10:45:23.436Z,99242.66
2023-04-14T10:47:02.396Z,99247.91
2023-04-14T10:48:36.595Z,99249.59
2023-04-14T10:50:13.759Z,99247.03
2023-04-14T10:51:49.791Z,99246.78
2023-04-14T10:53:25.049Z,99249.47
2023-04-14T10:55:07.766Z,99244.94
2023-04-14T10:56:39.630Z,99240.31
2023-04-14T10:58:20.266Z,99245.81
2023-04-14T10:59:59.404Z,99243.13
2023-04-14T11:01:32.837Z,99234.94
2023-04-14T11:03:11.317Z,99247.50
2023-04-14T11:05:05.333Z,99232.78
2023-04-14T11:06:46.991Z,99232.09
2023-04-14T11:08:27.292Z,99232.09
2023-04-14T11:10:20.715Z,99235.63
2023-04-14T11:11:54.892Z,99232.34
2023-04-14T11:13:27.097Z,99226.13
2023-04-14T11:15:05.302Z,99236.13
2023-04-14T11:16:44.621Z,99234.56
2023-04-14T11:18:37.971Z,99231.28
2023-04-14T11:20:17.900Z,99222.53
2023-04-14T11:21:51.264Z,99225.34
2023-04-14T11:23:28.155Z,99225.72
2023-04-14T11:25:00.298Z,99222.94
2023-04-14T11:26:32.232Z,99223.03
2023-04-14T11:28:04.933Z,99215.72
2023-04-14T11:29:36.737Z,99216.72
2023-04-14T11:31:16.083Z,99204.91
2023-04-14T11:32:52.674Z,99211.09
2023-04-14T11:34:26.238Z,99203.75
2023-04-14T11:35:59.145Z,99203.66
2023-04-14T11:37:31.403Z,99207.03
2023-04-14T11:39:04.354Z,99205.22
2023-04-14T11:40:36.851Z,99212.38
2023-04-14T11:42:08.696Z,99208.75
2023-04-14T11:43:47.023Z,99207.75
2023-04-14T11:45:19.185Z,99209.44
2023-04-14T11:46:51.008Z,99208.59
2023-04-14T11:48:23.127Z,99201.28
2023-04-14T11:49:54.975Z,99203.97
2023-04-14T11:51:32.735Z,99202.38
2023-04-14T11:53:13.818Z,99199.72
2023-04-14T11:54:45.902Z,99198.88
2023-04-14T11:56:18.688Z,99193.50
2023-04-14T11:57:50.671Z,99194.25
2023-04-14T11:59:22.499Z,99194.25
2023-04-14T12:00:57.703Z,99181.53
2023-04-14T12:02:29.751Z,99180.41
2023-04-14T12:04:03.171Z,99181.00
2023-04-14T12:05:35.733Z,99182.69
2023-04-14T12:07:15.105Z,99184.41
2023-04-14T12:08:52.593Z,99184.41
2023-04-14T12:10:25.186Z,99170.84
2023-04-14T12:11:57.513Z,99174.38
2023-04-14T12:13:29.443Z,99174.28
2023-04-14T12:15:02.187Z,99172.53
2023-04-14T12:16:34.406Z,99180.59
2023-04-14T12:18:09.266Z,99170.84
2023-04-14T12:19:42.469Z,99171.00
2023-04-14T12:21:20.562Z,99174.66
2023-04-14T12:22:52.400Z,99172.84
2023-04-14T12:24:24.260Z,99174.53
2023-04-14T12:25:56.296Z,99170.28
2023-04-14T12:27:28.697Z,99177.59
2023-04-14T12:29:00.773Z,99174.66
2023-04-14T12:30:33.875Z,99167.47
2023-04-14T12:32:12.313Z,99166.59
2023-04-14T12:33:44.404Z,99169.16
2023-04-14T12:35:16.327Z,99166.59
2023-04-14T12:36:52.554Z,99161.97
2023-04-14T12:38:28.469Z,99158.28
2023-04-14T12:40:01.822Z,99159.03
2023-04-14T12:41:33.804Z,99157.06
2023-04-14T12:43:05.715Z,99150.72
2023-04-14T12:44:37.516Z,99158.50
2023-04-14T12:46:10.101Z,99150.72
2023-04-14T12:47:53.140Z,99151.69
2023-04-14T12:49:32.754Z,99147.03
2023-04-14T12:51:15.789Z,99148.03
2023-04-14T12:52:47.803Z,99157.66
2023-04-14T12:54:20.531Z,99146.66
2023-04-14T12:56:07.707Z,99146.78
2023-04-14T12:57:40.050Z,99148.59
2023-04-14T12:59:11.986Z,99148.72
2023-04-14T13:00:43.885Z,99154.09
2023-04-14T13:02:15.844Z,99150.97
2023-04-14T13:03:55.965Z,99154.50
2023-04-14T13:05:28.115Z,99150.13
2023-04-14T13:06:59.949Z,99145.03
2023-04-14T13:08:32.031Z,99151.25
2023-04-14T13:10:04.132Z,99142.34
2023-04-14T13:11:36.032Z,99149.56
2023-04-14T13:13:07.858Z,99151.41
2023-04-14T13:14:39.898Z,99144.31
2023-04-14T13:16:16.986Z,99140.78
2023-04-14T13:17:49.898Z,99143.47
2023-04-14T13:19:21.708Z,99143.72
2023-04-14T13:20:55.693Z,99142.88
2023-04-14T13:22:27.583Z,99134.25
2023-04-14T13:23:59.379Z,99135.94
2023-04-14T13:25:31.417Z,99129.59
2023-04-14T13:27:03.392Z,99131.59
2023-04-14T13:28:35.297Z,99134.53
2023-04-14T13:30:07.853Z,99129.28
2023-04-14T13:31:40.430Z,99128.44
2023-04-14T13:33:13.398Z,99130.16
2023-04-14T13:34:46.436Z,99128.44
2023-04-14T13:36:18.276Z,99129.28
2023-04-14T13:37:50.175Z,99121.97
2023-04-14T13:39:22.925Z,99129.03
2023-04-14T13:40:54.901Z,99127.91
2023-04-14T13:42:26.893Z,99121.56
2023-04-14T13:43:58.848Z,99127.66
2023-04-14T13:45:31.123Z,99127.66
2023-04-14T13:47:03.083Z,99124.84
2023-04-14T13:48:34.900Z,99120.19
2023-04-14T13:50:07.632Z,99123.72
2023-04-14T13:51:39.887Z,99122.00
2023-04-14T13:53:12.520Z,99117.50
2023-04-14T13:54:44.339Z,99128.22
2023-04-14T13:56:16.177Z,99125.44
2023-04-14T13:57:48.019Z,99121.75
2023-04-14T13:59:19.851Z,99120.06
2023-04-14T14:00:51.805Z,99119.06
2023-04-14T14:02:24.176Z,99113.56
2023-04-14T14:03:56.673Z,99115.28
2023-04-14T14:05:29.012Z,99117.97
2023-04-14T14:07:01.382Z,99112.44
2023-04-14T14:08:37.859Z,99123.75
2023-04-14T14:10:10.986Z,99110.34
2023-04-14T14:11:44.585Z,99112.75
2023-04-14T14:13:18.039Z,99115.31
2023-04-14T14:14:50.416Z,99119.56
2023-04-14T14:16:36.037Z,99121.25
2023-04-14T14:18:08.897Z,99118.44
2023-04-14T14:19:40.791Z,99121.94
2023-04-14T14:21:12.645Z,99131.56
2023-04-14T14:22:44.545Z,99127.78
2023-04-14T14:24:16.372Z,99132.03
2023-04-14T14:25:48.461Z,99126.66
2023-04-14T14:27:20.310Z,99122.97
2023-04-14T14:28:52.186Z,99123.81
2023-04-14T14:30:24.122Z,99121.88
2023-04-14T14:31:56.052Z,99129.63
2023-04-14T14:33:27.944Z,99131.22
2023-04-14T14:34:59.832Z,99127.53
2023-04-14T14:36:31.700Z,99131.78
2023-04-14T14:38:03.529Z,99128.94
2023-04-14T14:39:35.411Z,99139.41
2023-04-14T14:41:07.215Z,99131.25
2023-04-14T14:42:39.051Z,99127.56
2023-04-14T14:44:10.977Z,99139.97
2023-04-14T14:45:42.842Z,99134.63
2023-04-14T14:47:14.863Z,99126.56
2023-04-14T14:48:46.904Z,99133.66
2023-04-14T14:50:18.829Z,99131.94
2023-04-14T14:51:50.923Z,99143.50
2023-04-14T14:53:22.712Z,99126.72
2023-04-14T14:54:54.863Z,99138.41
2023-04-14T14:56:27.848Z,99136.72
2023-04-14T14:57:59.706Z,99135.88
2023-04-14T14:59:31.506Z,99136.72
2023-04-14T15:01:06.107Z,99133.19
2023-04-14T15:02:39.026Z,99137.72
2023-04-14T15:04:12.396Z,99140.41
2023-04-14T15:05:44.227Z,99141.25
2023-04-14T15:07:16.097Z,99136.03
2023-04-14T15:08:49.293Z,99140.53
2023-04-14T15:10:21.097Z,99142.50
2023-04-14T15:11:52.912Z,99137.16
2023-04-14T15:13:24.769Z,99141.66
2023-04-14T15:14:57.030Z,99140.78
2023-04-14T15:16:29.077Z,99142.78
2023-04-14T15:18:01.178Z,99141.94
2023-04-14T15:19:33.167Z,99140.38
2023-04-14T15:21:05.413Z,99143.06
2023-04-14T15:22:37.291Z,99147.56
2023-04-14T15:24:09.196Z,99143.31
2023-04-14T15:25:41.095Z,99149.81
2023-04-14T15:27:12.892Z,99151.50
2023-04-14T15:28:45.558Z,99142.03
2023-04-14T15:30:17.427Z,99158.13
2023-04-14T15:31:49.256Z,99145.97
2023-04-14T15:33:21.306Z,99152.31
2023-04-14T15:34:56.380Z,99154.13
2023-04-14T15:36:28.882Z,99153.56
2023-04-14T15:38:00.740Z,99152.03
2023-04-14T15:39:32.680Z,99156.50
2023-04-14T15:41:05.566Z,99151.41
2023-04-14T15:42:38.194Z,99160.44
2023-04-14T15:44:10.084Z,99161.28
2023-04-14T15:45:42.447Z,99164.13
2023-04-14T15:47:14.742Z,99157.06
2023-04-14T15:48:46.550Z,99163.28
2023-04-14T15:50:19.120Z,99162.13
2023-04-14T15:51:51.046Z,99149.03
2023-04-14T15:53:22.860Z,99161.56
2023-04-14T15:54:54.641Z,99160.44
2023-04-14T15:56:27.286Z,99157.06
2023-04-14T15:57:59.401Z,99160.59
2023-04-14T15:59:31.281Z,99164.25
2023-04-14T16:01:09.377Z,99158.03
2023-04-14T16:02:42.426Z,99161.56
2023-04-14T16:04:14.691Z,99167.91
2023-04-14T16:05:46.568Z,99161.69
2023-04-14T16:07:18.384Z,99164.38
2023-04-14T16:08:50.218Z,99160.97
2023-04-14T16:10:22.065Z,99162.69
2023-04-14T16:11:53.923Z,99156.59
2023-04-14T16:13:25.995Z,99161.97
2023-04-14T16:14:58.916Z,99156.59
2023-04-14T16:16:32.829Z,99162.81
2023-04-14T16:18:04.639Z,99161.97
2023-04-14T16:19:36.403Z,99160.97
2023-04-14T16:21:08.524Z,99151.09
2023-04-14T16:22:40.577Z,99151.09
2023-04-14T16:24:12.374Z,99158.28
2023-04-14T16:25:48.896Z,99150.25
2023-04-14T16:27:20.775Z,99151.97
2023-04-14T16:28:52.785Z,99155.50
2023-04-14T16:30:24.585Z,99162.69
2023-04-14T16:31:56.412Z,99159.88
2023-04-14T16:33:28.976Z,99153.66
2023-04-14T16:35:01.330Z,99161.69
2023-04-14T16:36:33.539Z,99148.28
2023-04-14T16:38:08.795Z,99151.81
2023-04-14T16:39:41.478Z,99150.00
2023-04-14T16:41:13.244Z,99155.63
2023-04-14T16:42:45.099Z,99157.34
2023-04-14T16:44:16.919Z,99155.63
2023-04-14T16:45:48.761Z,99154.78
2023-04-14T16:47:21.439Z,99153.19
2023-04-14T16:48:53.205Z,99160.53
2023-04-14T16:50:25.019Z,99160.53
2023-04-14T16:51:57.804Z,99156.16
2023-04-14T16:53:29.902Z,99151.03
2023-04-14T16:55:02.132Z,99154.72
2023-04-14T16:56:36.866Z,99153.03
2023-04-14T16:58:10.058Z,99161.19
2023-04-14T16:59:42.049Z,99154.13
2023-04-14T17:01:13.862Z,99161.19
2023-04-14T17:02:46.096Z,99147.94
2023-04-14T17:04:18.284Z,99156.09
2023-04-14T17:05:50.609Z,99158.66
2023-04-14T17:07:22.417Z,99158.06
2023-04-14T17:08:54.230Z,99153.56
2023-04-14T17:10:26.511Z,99159.91
2023-04-14T17:11:58.950Z,99159.19
2023-04-14T17:13:30.896Z,99154.09
2023-04-14T17:15:03.873Z,99150.41
2023-04-14T17:16:35.863Z,99145.31
2023-04-14T17:18:07.706Z,99154.34
2023-04-14T17:19:39.514Z,99145.47
2023-04-14T17:21:11.325Z,99145.72
2023-04-14T17:22:43.397Z,99144.03
2023-04-14T17:24:15.203Z,99145.00
2023-04-14T17:25:48.559Z,99143.31
2023-04-14T17:27:20.463Z,99151.50
2023-04-14T17:28:52.673Z,99149.78
2023-04-14T17:30:24.770Z,99149.06
2023-04-14T17:31:56.705Z,99151.75
2023-04-14T17:33:28.598Z,99153.69
2023-04-14T17:35:00.823Z,99150.28
2023-04-14T17:36:32.620Z,99145.91
2023-04-14T17:38:04.444Z,99146.06
2023-04-14T17:39:36.354Z,99154.22
2023-04-14T17:41:09.954Z,99151.53
2023-04-14T17:42:42.736Z,99154.22
2023-04-14T17:44:14.722Z,99149.13
2023-04-14T17:45:50.647Z,99160.84
2023-04-14T17:47:23.131Z,99158.16
2023-04-14T17:48:55.205Z,99160.09
2023-04-14T17:50:27.566Z,99159.25
2023-04-14T17:51:59.736Z,99154.88
2023-04-14T17:53:31.764Z,99155.84
2023-04-14T17:55:04.593Z,99160.34
2023-04-14T17:56:36.394Z,99154.03
2023-04-14T17:58:10.251Z,99159.41
2023-04-14T17:59:43.059Z,99156.00
2023-04-14T18:01:14.991Z,99156.13
2023-04-14T18:02:47.150Z,99156.13
2023-04-14T18:04:21.850Z,99153.44
2023-04-14T18:05:54.119Z,99152.47
2023-04-14T18:07:26.595Z,99153.56
2023-04-14T18:08:58.375Z,99154.31
2023-04-14T18:10:30.169Z,99151.72
2023-04-14T18:12:02.876Z,99157.09
2023-04-14T18:13:34.829Z,99146.63
2023-04-14T18:15:07.359Z,99158.19
2023-04-14T18:16:39.219Z,99152.00
2023-04-14T18:18:11.786Z,99156.50
2023-04-14T18:19:43.624Z,99157.47
2023-04-14T18:21:15.929Z,99155.66
2023-04-14T18:22:47.792Z,99157.47
2023-04-14T18:29:12.264Z,99151.25
2023-04-14T18:30:44.046Z,99156.72
2023-04-14T18:32:15.967Z,99154.06